sensor_id;sensor_type;location;lat;lon;timestamp;temperature;humidity
31129;DHT22;17777;48.770;8.944;2023-04-03T19:54:33;10.30;48.70
31129;DHT22;17777;48.770;8.944;2023-04-03T19:56:59;10.60;45.20
31129;DHT22;17777;48.770;8.944;2023-04-03T19:59:25;10.80;45.10
31129;DHT22;17777;48.770;8.944;2023-04-03T20:01:51;11.00;44.70
31129;DHT22;17777;48.770;8.944;2023-04-03T20:04:17;11.10;44.40
31129;DHT22;17777;48.770;8.944;2023-04-03T20:06:43;11.20;44.10
31129;DHT22;17777;48.770;8.944;2023-04-03T20:09:09;11.20;43.80
31129;DHT22;17777;48.770;8.944;2023-04-03T20:11:36;11.20;43.60
31129;DHT22;17777;48.770;8.944;2023-04-03T20:14:02;11.10;43.50
31129;DHT22;17777;48.770;8.944;2023-04-03T20:16:29;11.10;43.40
31129;DHT22;17777;48.770;8.944;2023-04-03T20:18:55;11.10;43.40
31129;DHT22;17777;48.770;8.944;2023-04-03T20:21:27;11.10;43.40
31129;DHT22;17777;48.770;8.944;2023-04-03T20:23:54;11.00;43.20
31129;DHT22;17777;48.770;8.944;2023-04-03T20:26:22;11.00;43.50
31129;DHT22;17777;48.770;8.944;2023-04-03T20:28:50;10.90;43.40
31129;DHT22;17777;48.770;8.944;2023-04-03T20:31:18;10.90;43.40
31129;DHT22;17777;48.770;8.944;2023-04-03T20:33:45;10.90;43.40
31129;DHT22;17777;48.770;8.944;2023-04-03T20:36:12;10.80;43.50
31129;DHT22;17777;48.770;8.944;2023-04-03T20:38:38;10.80;43.40
31129;DHT22;17777;48.770;8.944;2023-04-03T20:41:04;10.80;43.40
31129;DHT22;17777;48.770;8.944;2023-04-03T20:43:30;10.80;43.30
31129;DHT22;17777;48.770;8.944;2023-04-03T20:45:59;10.70;43.10
31129;DHT22;17777;48.770;8.944;2023-04-03T20:48:26;10.70;42.80
31129;DHT22;17777;48.770;8.944;2023-04-03T20:50:51;10.70;43.00
31129;DHT22;17777;48.770;8.944;2023-04-03T20:53:17;10.60;43.60
31129;DHT22;17777;48.770;8.944;2023-04-03T20:55:57;10.60;42.90
31129;DHT22;17777;48.770;8.944;2023-04-03T20:58:25;10.50;42.30
31129;DHT22;17777;48.770;8.944;2023-04-03T21:00:54;10.50;42.90
31129;DHT22;17777;48.770;8.944;2023-04-03T21:03:25;10.50;42.80
31129;DHT22;17777;48.770;8.944;2023-04-03T21:20:39;10.20;43.10
31129;DHT22;17777;48.770;8.944;2023-04-03T21:23:05;10.10;43.00
31129;DHT22;17777;48.770;8.944;2023-04-03T21:25:31;10.10;43.00
31129;DHT22;17777;48.770;8.944;2023-04-03T21:27:57;10.10;43.00
31129;DHT22;17777;48.770;8.944;2023-04-03T21:30:24;10.10;42.90
31129;DHT22;17777;48.770;8.944;2023-04-03T21:32:50;10.10;42.90
31129;DHT22;17777;48.770;8.944;2023-04-03T21:35:16;10.00;42.80
31129;DHT22;17777;48.770;8.944;2023-04-03T21:37:42;10.00;42.80
31129;DHT22;17777;48.770;8.944;2023-04-03T21:40:07;10.00;42.70
31129;DHT22;17777;48.770;8.944;2023-04-03T21:42:33;9.90;42.70
31129;DHT22;17777;48.770;8.944;2023-04-03T21:44:59;9.90;42.70
31129;DHT22;17777;48.770;8.944;2023-04-03T21:47:25;9.90;42.70
31129;DHT22;17777;48.770;8.944;2023-04-03T21:49:51;9.80;42.60
31129;DHT22;17777;48.770;8.944;2023-04-03T21:52:16;9.80;42.60
31129;DHT22;17777;48.770;8.944;2023-04-03T21:54:42;9.80;43.30
31129;DHT22;17777;48.770;8.944;2023-04-03T21:57:08;9.80;42.50
31129;DHT22;17777;48.770;8.944;2023-04-03T21:59:36;9.70;42.60
31129;DHT22;17777;48.770;8.944;2023-04-03T22:02:03;9.70;42.60
31129;DHT22;17777;48.770;8.944;2023-04-03T22:04:29;9.70;42.60
31129;DHT22;17777;48.770;8.944;2023-04-03T22:06:55;9.70;42.60
31129;DHT22;17777;48.770;8.944;2023-04-03T22:09:24;9.60;42.50
31129;DHT22;17777;48.770;8.944;2023-04-03T22:11:51;9.60;42.50
31129;DHT22;17777;48.770;8.944;2023-04-03T22:14:17;9.60;42.50
31129;DHT22;17777;48.770;8.944;2023-04-03T22:16:42;9.60;42.50
31129;DHT22;17777;48.770;8.944;2023-04-03T22:19:12;9.50;42.50
31129;DHT22;17777;48.770;8.944;2023-04-03T22:21:39;9.50;42.50
31129;DHT22;17777;48.770;8.944;2023-04-03T22:24:06;9.50;42.40
31129;DHT22;17777;48.770;8.944;2023-04-03T22:26:32;9.40;42.40
31129;DHT22;17777;48.770;8.944;2023-04-03T22:28:59;9.40;42.40
31129;DHT22;17777;48.770;8.944;2023-04-03T22:31:26;9.40;42.50
31129;DHT22;17777;48.770;8.944;2023-04-03T22:33:52;9.30;42.50
31129;DHT22;17777;48.770;8.944;2023-04-03T22:36:19;9.30;42.60
31129;DHT22;17777;48.770;8.944;2023-04-03T22:38:45;9.30;42.60
31129;DHT22;17777;48.770;8.944;2023-04-03T22:41:12;9.20;42.50
31129;DHT22;17777;48.770;8.944;2023-04-03T22:43:38;9.20;42.50
31129;DHT22;17777;48.770;8.944;2023-04-03T22:46:08;9.20;42.50
31129;DHT22;17777;48.770;8.944;2023-04-03T22:48:34;9.20;42.40
31129;DHT22;17777;48.770;8.944;2023-04-03T22:51:06;9.20;42.50
31129;DHT22;17777;48.770;8.944;2023-04-03T22:53:32;9.10;42.50
31129;DHT22;17777;48.770;8.944;2023-04-03T22:56:01;9.10;42.60
31129;DHT22;17777;48.770;8.944;2023-04-03T22:58:29;9.10;42.50
31129;DHT22;17777;48.770;8.944;2023-04-03T23:01:08;9.10;42.60
31129;DHT22;17777;48.770;8.944;2023-04-03T23:03:39;9.10;42.40
31129;DHT22;17777;48.770;8.944;2023-04-03T23:06:07;9.00;42.60
31129;DHT22;17777;48.770;8.944;2023-04-03T23:08:34;9.00;42.70
31129;DHT22;17777;48.770;8.944;2023-04-03T23:11:02;9.00;42.60
31129;DHT22;17777;48.770;8.944;2023-04-03T23:13:28;9.00;42.70
31129;DHT22;17777;48.770;8.944;2023-04-03T23:15:55;9.00;42.70
31129;DHT22;17777;48.770;8.944;2023-04-03T23:18:23;9.00;42.70
31129;DHT22;17777;48.770;8.944;2023-04-03T23:20:49;8.90;42.70
31129;DHT22;17777;48.770;8.944;2023-04-03T23:23:19;8.90;42.70
31129;DHT22;17777;48.770;8.944;2023-04-03T23:25:56;8.80;42.50
31129;DHT22;17777;48.770;8.944;2023-04-03T23:28:24;8.80;42.50
31129;DHT22;17777;48.770;8.944;2023-04-03T23:31:01;8.80;42.70
31129;DHT22;17777;48.770;8.944;2023-04-03T23:33:29;8.80;42.40
31129;DHT22;17777;48.770;8.944;2023-04-03T23:35:55;8.70;42.70
31129;DHT22;17777;48.770;8.944;2023-04-03T23:38:22;8.70;42.70
31129;DHT22;17777;48.770;8.944;2023-04-03T23:40:48;8.60;42.70
31129;DHT22;17777;48.770;8.944;2023-04-03T23:43:14;8.60;42.80
31129;DHT22;17777;48.770;8.944;2023-04-03T23:45:40;8.60;42.70
31129;DHT22;17777;48.770;8.944;2023-04-03T23:48:06;8.60;42.80
31129;DHT22;17777;48.770;8.944;2023-04-03T23:50:33;8.50;42.80
31129;DHT22;17777;48.770;8.944;2023-04-03T23:52:58;8.50;42.90
31129;DHT22;17777;48.770;8.944;2023-04-03T23:55:25;8.50;42.90
31129;DHT22;17777;48.770;8.944;2023-04-03T23:57:51;8.50;43.60
